Strona główna
METAR-TAF:

METAR-TAF

Lotnisko :

Port lotniczy Harbin-Taiping

Harbin, Chiny

Szerokość geograficzna: 45-45N, Długość geograficzna: 126-46E, wysokość: 143 m

Aktualna obserwacja pogody

Raport powstał 40 minut temu, godzina 12:00 UTC
Wiatr 2 kt od południe
Temperatura 4°C
Wilgotność 65%
Ciśnienie 1022 hPa
Widzialność 10 km lub więcej
Brak chmur poniżej 1500 m i brak chmur cumulonimbus

METAR: ZYHB 161200Z 19001MPS CAVOK 04/M02 Q1022 NOSIG

czas: 20:40 (12:40 UTC)

Prognoza

Raport powstał 3 godziny i 39 minut temu, godzina 09:01 UTC
Prognoza ważna od 16 godzina 12 UTC do 17 godzina 12 UTC
Wiatr 6 kt od północny zachód
Widzialność: 6000 m
Mało chmury na wysokości 3300 ft

TAF: ZYHB 160901Z 1612/1712 32003MPS 6000 FEW033 TX08/1706Z TNM02/21Z

Obserwacja i prognoza pogody dla ponad 4000 lotnisk (raport METAR i TAF).

Dostępne stacje oznaczono żółtymi i czerwonymi punktami na mapie.

Najedź kursorem aby zobaczyć nazwę stacji.

Kliknij aby zobaczyć obserwacje i prognozy pogody.

Aby zmienić mapę: kliknij na zielony przycisk z czarnym krzyżykiem, aby powiększyć; na zielony przycisk z myślnikiem, aby pomniejszyć; na zielone strzałki, aby przejść do map sąsiednich.


METAR-TAF: